Time;durP1;ratioP1;P1;durP2;ratioP2;P2;SDS_P1;SDS_P2;PMS_P1;PMS_P2;Temp;Humidity;BMP_temperature;BMP_pressure;BME280_temperature;BME280_humidity;BME280_pressure;Samples;Min_cycle;Max_cycle;Signal;HPM_P1;HPM_P2
2022/11/01 00:02:23;;;;;;;5.97;1.80;;;;;;;25.44;39.99;101029.16;4996387;28;20038;-57
2022/11/01 00:04:51;;;;;;;5.43;1.65;;;;;;;25.44;39.83;101025.69;4996421;28;20085;-58
2022/11/01 00:07:20;;;;;;;8.15;1.80;;;;;;;25.45;39.94;101038.81;4995805;28;20054;-56
2022/11/01 00:09:49;;;;;;;7.82;2.50;;;;;;;25.45;40.20;101040.56;4996259;28;20495;-58
2022/11/01 00:12:17;;;;;;;6.65;2.05;;;;;;;25.43;39.88;101040.53;4996078;28;20117;-59
2022/11/01 00:14:46;;;;;;;9.82;2.03;;;;;;;25.40;40.20;101037.84;4996316;28;20419;-59
2022/11/01 00:17:14;;;;;;;7.20;2.28;;;;;;;25.40;39.75;101039.63;4995919;28;20030;-56
2022/11/01 00:19:43;;;;;;;5.35;1.63;;;;;;;25.39;39.93;101051.88;4995955;28;20041;-58
2022/11/01 00:22:10;;;;;;;8.38;1.75;;;;;;;25.37;39.99;101042.22;4996035;28;20037;-59
2022/11/01 00:24:37;;;;;;;9.93;2.58;;;;;;;25.40;39.96;101050.97;4996105;28;20022;-58
2022/11/01 00:27:05;;;;;;;5.75;1.77;;;;;;;25.35;40.07;101050.09;5010945;28;20081;-58
2022/11/01 00:29:34;;;;;;;6.03;2.30;;;;;;;25.32;40.23;101037.78;4995786;28;20031;-58
2022/11/01 00:32:03;;;;;;;5.07;1.63;;;;;;;25.36;40.27;101045.69;4995822;28;20387;-57
2022/11/01 00:34:31;;;;;;;5.82;1.90;;;;;;;25.31;40.32;101057.06;4978030;28;20368;-59
2022/11/01 00:37:00;;;;;;;8.52;1.70;;;;;;;25.26;40.32;101055.25;4995529;28;20450;-58
2022/11/01 00:39:27;;;;;;;8.45;2.20;;;;;;;25.26;40.20;101063.13;4995865;28;20026;-57
2022/11/01 00:41:57;;;;;;;6.75;1.92;;;;;;;25.26;40.38;101060.50;4995515;28;20037;-59
2022/11/01 00:44:26;;;;;;;6.90;2.45;;;;;;;25.29;40.14;101064.03;4995760;28;20030;-59
2022/11/01 00:46:55;;;;;;;6.97;1.65;;;;;;;25.23;40.09;101060.50;4995301;28;20034;-58
2022/11/01 00:49:22;;;;;;;7.10;1.90;;;;;;;25.26;39.94;101071.88;4995583;28;20109;-58
2022/11/01 00:51:51;;;;;;;6.72;2.13;;;;;;;25.31;39.78;101067.56;4995251;28;20037;-59
2022/11/01 00:54:19;;;;;;;5.80;2.13;;;;;;;25.30;39.99;101078.94;4995220;28;20087;-58
2022/11/01 00:56:48;;;;;;;4.22;1.67;;;;;;;25.27;40.04;101073.66;4995084;28;20031;-58
2022/11/01 00:59:17;;;;;;;8.10;2.33;;;;;;;25.21;40.18;101067.47;4995706;28;20117;-59
2022/11/01 01:01:45;;;;;;;4.85;2.00;;;;;;;25.22;40.18;101070.09;4995413;28;20031;-58
2022/11/01 01:04:14;;;;;;;6.68;2.10;;;;;;;25.24;39.96;101080.59;4995133;28;20037;-58
2022/11/01 01:06:42;;;;;;;6.10;1.92;;;;;;;25.25;40.03;101080.63;4994868;28;20045;-58
2022/11/01 01:09:11;;;;;;;5.60;1.63;;;;;;;25.25;39.59;101077.09;4995183;28;20026;-59
2022/11/01 01:11:40;;;;;;;8.98;2.10;;;;;;;25.26;39.71;101082.41;4977858;28;20026;-59
2022/11/01 01:14:09;;;;;;;7.80;1.85;;;;;;;25.26;40.00;101087.66;4995080;28;20545;-59
2022/11/01 01:16:36;;;;;;;5.75;1.88;;;;;;;25.22;40.12;101082.34;4977949;28;20027;-57
2022/11/01 01:19:05;;;;;;;7.80;1.73;;;;;;;25.18;40.31;101092.81;4994809;28;20034;-57
2022/11/01 01:21:33;;;;;;;6.22;2.00;;;;;;;25.17;40.06;101095.41;4995015;28;20120;-58
2022/11/01 01:24:02;;;;;;;5.25;1.55;;;;;;;25.12;40.02;101086.63;4994976;28;20022;-58
2022/11/01 01:26:30;;;;;;;8.07;1.95;;;;;;;25.17;40.06;101093.69;4994750;28;20022;-57
2022/11/01 01:28:59;;;;;;;6.85;2.38;;;;;;;25.19;39.94;101098.94;4994642;28;20037;-58
2022/11/01 01:31:28;;;;;;;8.35;2.45;;;;;;;25.14;39.99;101095.41;4994679;28;20030;-58
2022/11/01 01:34:00;;;;;;;7.68;1.90;;;;;;;25.09;40.28;101099.72;4994494;28;20030;-58
2022/11/01 01:36:32;;;;;;;7.07;1.83;;;;;;;25.05;40.48;101096.19;4994414;28;20471;-58
2022/11/01 01:39:01;;;;;;;8.30;2.20;;;;;;;25.03;40.32;101101.41;4994726;28;20425;-57
2022/11/01 01:42:11;;;;;;;8.80;2.40;;;;;;;25.11;39.93;101106.75;4994770;28;20466;-56
2022/11/01 01:44:53;;;;;;;5.22;1.75;;;;;;;25.10;40.14;101107.59;4984825;28;20092;-57
2022/11/01 01:47:25;;;;;;;8.55;2.05;;;;;;;25.05;40.05;101101.44;4993658;28;20467;-58
2022/11/01 01:50:15;;;;;;;7.93;2.00;;;;;;;25.13;39.92;101114.66;4994378;28;20036;-54
2022/11/01 01:52:46;;;;;;;6.57;1.98;;;;;;;25.14;39.88;101122.53;4977314;28;20026;-58
2022/11/01 01:55:15;;;;;;;6.80;2.13;;;;;;;25.03;40.37;101114.53;4994490;28;20042;-59
2022/11/01 01:57:44;;;;;;;5.60;1.70;;;;;;;25.03;40.30;101119.78;5008945;28;20030;-58
2022/11/01 02:00:14;;;;;;;5.30;1.85;;;;;;;24.95;40.39;101110.97;4994305;28;20472;-57
2022/11/01 02:02:43;;;;;;;6.53;1.95;;;;;;;24.97;40.43;101118.84;4976702;28;20062;-53
2022/11/01 02:05:18;;;;;;;8.05;2.22;;;;;;;25.01;40.23;101115.38;4993975;28;20026;-58
2022/11/01 02:07:47;;;;;;;8.30;2.40;;;;;;;24.99;40.42;101117.97;4976772;28;20046;-57
2022/11/01 02:10:16;;;;;;;7.80;1.88;;;;;;;24.93;40.34;101120.56;5008937;28;20361;-57
2022/11/01 02:12:46;;;;;;;6.13;1.70;;;;;;;24.96;40.39;101128.47;4976511;28;20029;-59
2022/11/01 02:15:16;;;;;;;7.00;2.33;;;;;;;24.99;40.12;101122.34;4994056;28;20077;-58
2022/11/01 02:18:12;;;;;;;5.78;2.15;;;;;;;24.97;40.63;101122.34;4993749;28;20019;-59
2022/11/01 02:20:49;;;;;;;5.75;1.98;;;;;;;24.95;40.39;101125.81;4977253;28;20598;-58
2022/11/01 02:23:29;;;;;;;14.77;3.05;;;;;;;24.99;40.25;101128.47;5009003;28;20069;-57
2022/11/01 02:26:08;;;;;;;8.02;2.15;;;;;;;24.97;40.09;101124.97;4993809;28;20146;-58
2022/11/01 02:28:54;;;;;;;7.88;2.00;;;;;;;24.92;40.45;101118.78;4994060;28;20029;-58
2022/11/01 02:31:34;;;;;;;7.45;2.08;;;;;;;24.95;40.34;101124.09;4976706;28;20054;-57
2022/11/01 02:34:27;;;;;;;9.93;2.42;;;;;;;24.98;40.19;101112.72;4976380;28;20042;-59
2022/11/01 02:37:03;;;;;;;7.22;1.65;;;;;;;24.96;40.24;101120.59;4993491;28;20087;-59
2022/11/01 02:39:34;;;;;;;7.53;2.00;;;;;;;24.99;40.00;101123.22;4976905;28;20436;-58
2022/11/01 02:42:26;;;;;;;7.88;2.25;;;;;;;24.95;40.09;101121.47;5008767;28;20447;-57
2022/11/01 02:45:01;;;;;;;5.45;1.52;;;;;;;24.89;40.29;101131.88;4993589;28;20450;-58
2022/11/01 02:47:31;;;;;;;9.10;1.80;;;;;;;24.97;40.23;101124.09;4976399;28;20476;-58
2022/11/01 02:50:03;;;;;;;8.30;2.38;;;;;;;24.98;39.98;101136.34;4993544;28;20058;-59
2022/11/01 02:52:32;;;;;;;8.95;2.30;;;;;;;24.93;40.08;101130.16;4993573;28;20081;-59
2022/11/01 02:55:04;;;;;;;8.57;2.13;;;;;;;24.94;40.38;101135.44;5008905;28;20388;-59
2022/11/01 02:57:38;;;;;;;8.43;1.95;;;;;;;24.84;40.38;101128.28;5008774;28;20116;-58
2022/11/01 03:00:27;;;;;;;6.93;2.05;;;;;;;24.92;40.19;101134.53;4964274;28;20026;-59
2022/11/01 03:03:02;;;;;;;7.72;2.10;;;;;;;24.99;40.29;101135.47;4980140;28;20396;-59
2022/11/01 03:05:42;;;;;;;5.03;1.65;;;;;;;24.93;40.26;101143.28;4997500;28;20030;-59
2022/11/01 03:08:13;;;;;;;7.47;2.35;;;;;;;24.86;40.39;101137.06;4980071;28;20137;-58
2022/11/01 03:11:01;;;;;;;7.22;2.15;;;;;;;24.92;40.23;101152.00;4997458;28;20177;-58
2022/11/01 03:13:59;;;;;;;9.38;2.30;;;;;;;24.87;40.31;101144.09;4997292;28;20034;-59
2022/11/01 03:16:41;;;;;;;7.00;1.67;;;;;;;24.92;40.29;101147.66;4997339;28;20504;-58
2022/11/01 03:19:17;;;;;;;7.07;2.05;;;;;;;24.90;40.36;101138.88;4997403;28;20037;-58
2022/11/01 03:22:12;;;;;;;7.72;2.20;;;;;;;24.83;40.27;101144.91;5012349;28;20049;-58
2022/11/01 03:25:38;;;;;;;9.75;2.60;;;;;;;24.84;40.44;101144.03;4996861;28;20357;-45
2022/11/01 03:28:25;;;;;;;8.27;2.15;;;;;;;24.87;40.36;101141.47;4995786;28;20117;-59
2022/11/01 03:31:01;;;;;;;6.22;1.80;;;;;;;24.82;40.43;101141.41;4979293;28;20038;-59
2022/11/01 03:33:33;;;;;;;5.85;2.05;;;;;;;24.77;40.69;101139.59;4995534;28;20034;-58
2022/11/01 03:36:06;;;;;;;8.77;2.65;;;;;;;24.82;40.39;101145.78;4979628;28;20580;-58
2022/11/01 03:38:37;;;;;;;10.15;2.72;;;;;;;24.86;40.43;101132.72;4997123;28;20158;-54
2022/11/01 03:41:09;;;;;;;7.72;2.13;;;;;;;24.81;40.35;101134.41;4997194;28;20018;-56
2022/11/01 03:43:38;;;;;;;8.00;1.95;;;;;;;24.76;40.41;101130.81;4980202;28;20132;-57
2022/11/01 03:46:06;;;;;;;8.98;2.22;;;;;;;24.79;40.41;101136.13;4996580;28;20042;-56
2022/11/01 03:48:38;;;;;;;8.48;2.30;;;;;;;24.79;40.35;101138.75;5011673;28;20031;-58
2022/11/01 03:51:11;;;;;;;8.48;2.50;;;;;;;24.75;40.14;101134.31;4996616;28;20025;-59
2022/11/01 03:53:40;;;;;;;6.68;2.28;;;;;;;24.73;40.23;101134.31;5011658;28;20110;-58
2022/11/01 03:56:08;;;;;;;6.55;2.17;;;;;;;24.76;40.63;101133.44;4996519;28;20026;-58
2022/11/01 03:58:45;;;;;;;7.05;2.28;;;;;;;24.58;40.49;101116.59;4997050;28;20027;-53
2022/11/01 04:01:16;;;;;;;9.20;2.17;;;;;;;24.79;40.47;101153.63;4996666;28;20038;-58
2022/11/01 04:03:44;;;;;;;11.00;2.28;;;;;;;24.85;40.21;101151.94;5011107;28;20039;-58
2022/11/01 04:06:13;;;;;;;10.02;2.67;;;;;;;24.73;40.37;101144.81;4996235;28;20485;-57
2022/11/01 04:08:41;;;;;;;7.80;1.92;;;;;;;24.74;40.23;101148.28;4996276;28;20479;-58
2022/11/01 04:11:10;;;;;;;10.07;2.75;;;;;;;24.72;40.49;101137.78;4995267;28;20471;-58
2022/11/01 04:13:39;;;;;;;7.28;2.28;;;;;;;24.73;40.42;101152.66;4996565;28;20374;-57
2022/11/01 04:21:42;;;;;;;9.60;2.60;;;;;;;24.65;40.36;101143.81;4992830;28;20038;-58
2022/11/01 04:24:11;;;;;;;7.72;2.20;;;;;;;24.65;40.55;101149.06;4995930;28;20422;-57
2022/11/01 04:26:48;;;;;;;8.50;2.72;;;;;;;24.66;40.28;101145.53;5009661;28;20034;-58
2022/11/01 04:29:15;;;;;;;8.68;2.53;;;;;;;24.64;40.51;101155.16;5015806;28;20029;-57
2022/11/01 04:31:44;;;;;;;8.00;2.47;;;;;;;24.61;40.19;101146.34;5015247;28;20026;-58
2022/11/01 04:34:12;;;;;;;10.32;2.65;;;;;;;24.57;40.58;101145.44;5015638;28;20026;-58
2022/11/01 04:36:39;;;;;;;8.40;2.25;;;;;;;24.63;40.43;101150.78;5015328;28;20109;-58
2022/11/01 04:39:09;;;;;;;9.25;2.20;;;;;;;24.58;40.38;101152.44;5015432;28;20076;-55
2022/11/01 04:41:38;;;;;;;8.73;2.53;;;;;;;24.58;40.57;101149.81;4998034;28;20025;-58
2022/11/01 04:44:06;;;;;;;7.55;2.53;;;;;;;24.45;40.63;101125.16;5015222;28;20035;-53
2022/11/01 04:46:35;;;;;;;9.10;2.53;;;;;;;24.55;40.32;101139.28;5015130;28;20053;-58
2022/11/01 04:49:03;;;;;;;10.82;2.92;;;;;;;24.62;40.25;101148.09;5015333;28;20036;-58
2022/11/01 04:51:32;;;;;;;8.20;2.25;;;;;;;24.62;40.36;101153.34;5014930;28;20103;-59
2022/11/01 04:54:00;;;;;;;7.13;2.10;;;;;;;24.60;40.28;101150.72;5015318;28;20030;-58
2022/11/01 04:56:48;;;;;;;9.15;2.50;;;;;;;24.53;40.26;101146.25;5015006;28;20049;-58
2022/11/01 04:59:15;;;;;;;8.23;2.33;;;;;;;24.61;40.44;101156.84;5014985;28;20018;-58
2022/11/01 05:02:04;;;;;;;8.90;2.55;;;;;;;24.57;40.47;101146.28;5014880;28;20364;-59
2022/11/01 05:04:32;;;;;;;8.23;2.78;;;;;;;24.57;40.45;101150.69;5014544;28;20037;-59
2022/11/01 05:07:00;;;;;;;10.45;2.47;;;;;;;24.52;40.65;101150.63;5014637;28;20376;-58
2022/11/01 05:09:29;;;;;;;8.07;2.47;;;;;;;24.54;40.71;101146.28;5014793;28;20040;-55
2022/11/01 05:11:57;;;;;;;8.10;2.85;;;;;;;24.41;40.50;101145.22;5014884;28;20520;-58
2022/11/01 05:14:24;;;;;;;11.05;2.25;;;;;;;24.50;40.36;101148.81;5014876;28;20026;-58
2022/11/01 05:16:56;;;;;;;8.02;2.30;;;;;;;24.59;40.63;101148.97;5014857;28;20057;-57
2022/11/01 05:19:24;;;;;;;8.23;2.00;;;;;;;24.55;40.42;101153.28;5014997;28;20103;-57
2022/11/01 05:21:52;;;;;;;11.32;2.95;;;;;;;24.60;40.57;101152.44;5013463;28;20037;-56
2022/11/01 05:24:21;;;;;;;7.28;2.15;;;;;;;24.54;40.42;101148.91;5015207;28;20022;-58
2022/11/01 05:26:50;;;;;;;9.32;2.50;;;;;;;24.53;40.68;101147.13;5014287;28;20033;-57
2022/11/01 05:29:19;;;;;;;13.20;2.67;;;;;;;24.51;40.50;101133.13;5014362;28;20030;-57
2022/11/01 05:31:47;;;;;;;9.35;2.72;;;;;;;24.49;40.77;101155.81;5014120;28;20018;-57
2022/11/01 05:34:16;;;;;;;9.45;2.88;;;;;;;24.51;40.42;101148.84;5014400;28;20032;-56
2022/11/01 05:36:45;;;;;;;10.45;2.50;;;;;;;24.53;40.89;101164.59;5014079;28;20037;-58
2022/11/01 05:39:13;;;;;;;10.32;2.92;;;;;;;24.46;40.85;101165.41;5014410;28;20100;-56
2022/11/01 05:41:42;;;;;;;9.90;2.55;;;;;;;24.45;40.59;101156.63;5014241;28;20096;-57
2022/11/01 05:44:44;;;;;;;8.93;2.10;;;;;;;24.38;41.05;101160.03;5152696;27;20191;-57
2022/11/01 05:47:13;;;;;;;8.25;2.45;;;;;;;24.39;40.89;101162.66;5131039;28;20041;-56
2022/11/01 05:49:41;;;;;;;9.35;3.30;;;;;;;24.41;40.69;101153.09;5131234;28;20031;-59
2022/11/01 05:52:09;;;;;;;8.98;2.80;;;;;;;24.41;41.09;101154.81;5131379;28;20369;-56
2022/11/01 05:54:38;;;;;;;8.23;2.50;;;;;;;24.40;41.02;101148.69;5131128;28;20024;-54
2022/11/01 05:57:07;;;;;;;9.52;2.80;;;;;;;24.43;40.63;101159.25;5131088;28;20054;-59
2022/11/01 05:59:34;;;;;;;10.63;2.83;;;;;;;24.37;40.72;101159.13;5131014;28;20358;-58
2022/11/01 06:02:03;;;;;;;12.50;3.17;;;;;;;24.38;40.72;101146.94;5113007;28;20029;-57
2022/11/01 06:04:30;;;;;;;10.10;3.00;;;;;;;24.41;41.13;101152.19;5131384;28;20024;-55
2022/11/01 06:06:58;;;;;;;10.57;2.75;;;;;;;24.41;40.77;101154.81;5130797;28;20028;-57
2022/11/01 06:09:27;;;;;;;10.43;2.90;;;;;;;24.34;40.84;101148.59;5130865;28;20460;-56
2022/11/01 06:11:55;;;;;;;9.60;2.92;;;;;;;24.37;41.09;101153.91;5130797;28;20038;-57
2022/11/01 06:14:24;;;;;;;10.57;3.42;;;;;;;24.41;41.07;101153.09;5131052;28;20023;-57
2022/11/01 06:16:52;;;;;;;13.00;3.05;;;;;;;24.44;40.70;101147.00;5112499;28;20472;-56
2022/11/01 06:19:24;;;;;;;10.93;2.90;;;;;;;24.34;40.96;101148.59;5130910;28;20536;-57
2022/11/01 06:21:53;;;;;;;10.57;2.42;;;;;;;24.35;40.96;101149.50;5129063;28;20162;-55
2022/11/01 06:24:20;;;;;;;8.68;3.08;;;;;;;24.34;40.94;101161.72;5119076;28;20102;-60
2022/11/01 06:26:47;;;;;;;10.57;2.53;;;;;;;24.32;41.02;101150.34;5130258;28;20484;-56
2022/11/01 06:29:16;;;;;;;9.63;2.38;;;;;;;24.26;41.28;101150.25;5121354;28;20112;-57
2022/11/01 06:31:45;;;;;;;9.88;2.97;;;;;;;24.25;41.47;101159.84;5118745;28;20035;-51
2022/11/01 06:34:13;;;;;;;12.73;3.60;;;;;;;24.34;41.28;101153.84;5113868;28;20024;-56
2022/11/01 06:36:42;;;;;;;8.20;2.35;;;;;;;24.31;41.18;101152.94;5109623;28;20440;-57
2022/11/01 06:39:11;;;;;;;10.18;2.95;;;;;;;24.27;40.95;101150.25;5109706;28;20034;-57
2022/11/01 06:41:38;;;;;;;8.70;3.17;;;;;;;24.29;40.98;101150.31;5109761;28;20055;-56
2022/11/01 06:44:07;;;;;;;10.98;2.90;;;;;;;24.24;41.18;101144.09;5109636;28;20051;-57
2022/11/01 06:46:35;;;;;;;11.23;2.50;;;;;;;24.22;41.48;101148.44;5109702;28;20024;-51
2022/11/01 06:49:05;;;;;;;10.15;3.00;;;;;;;24.18;41.63;101149.25;5109411;28;20378;-56
2022/11/01 06:51:32;;;;;;;10.40;2.97;;;;;;;24.35;41.23;101160.00;5116559;28;20107;-57
2022/11/01 06:54:01;;;;;;;10.30;3.13;;;;;;;24.41;41.12;101158.34;5125506;28;20058;-58
2022/11/01 06:56:29;;;;;;;11.27;2.67;;;;;;;24.34;41.15;101155.59;5108518;28;20059;-58
2022/11/01 06:58:59;;;;;;;11.18;2.97;;;;;;;24.34;41.23;101156.47;5106197;28;20059;-58
2022/11/01 07:01:46;;;;;;;11.43;2.90;;;;;;;24.25;41.08;101153.72;5098315;28;20035;-56
2022/11/01 07:04:14;;;;;;;9.18;2.65;;;;;;;24.31;41.34;101158.19;5095828;28;20063;-57
2022/11/01 07:06:43;;;;;;;7.60;2.55;;;;;;;24.33;41.27;101148.59;5095800;28;20495;-58
2022/11/01 07:09:11;;;;;;;12.18;3.17;;;;;;;24.32;41.31;101152.97;5077655;28;20040;-58
2022/11/01 07:11:40;;;;;;;8.60;2.42;;;;;;;24.31;41.06;101148.59;5095231;28;20032;-58
2022/11/01 07:14:09;;;;;;;9.93;2.70;;;;;;;24.30;40.97;101156.41;5095373;28;20038;-58
2022/11/01 07:16:37;;;;;;;7.22;2.58;;;;;;;24.22;41.35;101151.06;5077595;28;20047;-58
2022/11/01 07:19:06;;;;;;;11.20;2.88;;;;;;;24.18;41.40;101155.38;5095766;28;20465;-56
2022/11/01 07:21:34;;;;;;;14.25;3.15;;;;;;;24.27;41.44;101162.50;5110481;28;20031;-58
2022/11/01 07:24:03;;;;;;;8.57;2.65;;;;;;;24.21;41.38;101167.63;5115784;28;20028;-56
2022/11/01 07:26:31;;;;;;;12.25;3.70;;;;;;;24.22;41.11;101175.53;5097605;28;20108;-55
2022/11/01 07:29:00;;;;;;;8.75;2.75;;;;;;;24.26;41.05;101176.47;5115878;28;20051;-54
2022/11/01 07:31:29;;;;;;;9.88;2.42;;;;;;;24.28;41.18;101175.63;5115514;28;20031;-56
2022/11/01 07:33:57;;;;;;;12.68;2.85;;;;;;;24.32;41.05;101187.06;5097766;28;20107;-59
2022/11/01 07:36:26;;;;;;;12.98;3.42;;;;;;;24.26;41.42;101177.34;5115124;28;20053;-56
2022/11/01 07:38:54;;;;;;;9.23;2.90;;;;;;;24.28;41.29;101170.38;5097503;28;20024;-57
2022/11/01 07:41:23;;;;;;;9.40;2.50;;;;;;;24.24;41.57;101186.91;5115599;28;20103;-57
2022/11/01 07:43:51;;;;;;;9.02;2.60;;;;;;;24.23;41.19;101192.13;5115380;28;20544;-55
2022/11/01 07:46:18;;;;;;;10.50;3.30;;;;;;;24.28;41.46;101206.22;5091018;28;20469;-58
2022/11/01 07:48:46;;;;;;;10.50;2.90;;;;;;;24.29;41.34;101207.97;5103332;28;20024;-59
2022/11/01 07:51:13;;;;;;;11.25;2.97;;;;;;;24.20;41.55;101203.47;5105049;28;20031;-59
2022/11/01 07:53:41;;;;;;;12.95;3.72;;;;;;;24.24;41.68;101199.16;5110852;28;20031;-55
2022/11/01 07:56:09;;;;;;;10.52;3.33;;;;;;;24.20;41.59;101202.56;5115009;28;20039;-59
2022/11/01 07:58:36;;;;;;;14.65;3.30;;;;;;;24.24;41.52;101205.25;5113830;28;20024;-57
2022/11/01 08:01:03;;;;;;;10.98;3.03;;;;;;;24.25;41.56;101214.88;5104268;28;20065;-56
2022/11/01 08:03:30;;;;;;;12.38;3.60;;;;;;;24.19;41.41;101217.44;5103728;28;20426;-58
2022/11/01 08:05:59;;;;;;;14.52;3.47;;;;;;;24.27;41.77;101220.19;5109396;28;20084;-56
2022/11/01 08:08:27;;;;;;;10.45;3.33;;;;;;;24.25;41.35;101224.50;5115182;28;20465;-57
2022/11/01 08:10:56;;;;;;;9.63;3.05;;;;;;;24.21;41.62;101220.97;5114715;28;20023;-57
2022/11/01 08:13:25;;;;;;;9.90;3.15;;;;;;;24.28;41.43;101230.66;5097075;28;20080;-57
2022/11/01 08:15:54;;;;;;;11.20;3.15;;;;;;;24.30;41.29;101225.47;5114936;28;20023;-56
2022/11/01 08:18:23;;;;;;;9.07;2.70;;;;;;;24.26;41.71;101221.03;5114911;28;20034;-56
2022/11/01 08:20:52;;;;;;;12.10;3.22;;;;;;;24.21;41.85;101214.81;5114860;28;20073;-56
2022/11/01 08:23:21;;;;;;;10.55;3.30;;;;;;;24.25;41.63;101224.50;5114199;28;20035;-57
2022/11/01 08:25:50;;;;;;;10.07;3.50;;;;;;;24.25;41.84;101220.13;5114714;28;20027;-57
2022/11/01 08:28:21;;;;;;;7.47;2.53;;;;;;;24.24;41.71;101233.22;5114786;28;20027;-57
2022/11/01 08:30:50;;;;;;;11.20;3.22;;;;;;;24.22;41.56;101229.69;5114612;28;20039;-57
2022/11/01 08:33:19;;;;;;;8.68;2.58;;;;;;;24.21;41.97;101227.94;5114187;28;20102;-56
2022/11/01 08:35:47;;;;;;;10.45;2.63;;;;;;;24.19;42.14;101229.63;5114525;28;20037;-58
2022/11/01 08:38:16;;;;;;;12.88;3.58;;;;;;;24.24;41.96;101228.84;5114603;28;20027;-56
2022/11/01 08:40:44;;;;;;;11.52;3.60;;;;;;;24.24;41.75;101235.84;5114197;28;20421;-59
2022/11/01 08:43:13;;;;;;;9.05;2.28;;;;;;;24.18;41.81;101243.59;5113785;28;20446;-58
2022/11/01 08:45:41;;;;;;;10.13;3.10;;;;;;;24.25;41.63;101229.75;5114212;28;20028;-56
2022/11/01 08:48:10;;;;;;;9.32;3.00;;;;;;;24.16;42.02;101233.09;5096127;28;20389;-58
2022/11/01 08:50:39;;;;;;;11.30;3.28;;;;;;;24.25;41.73;101227.13;5096376;28;20020;-58
2022/11/01 08:53:09;;;;;;;9.85;2.85;;;;;;;24.26;41.77;101224.53;5113967;28;20037;-58
2022/11/01 08:55:38;;;;;;;11.25;3.10;;;;;;;24.27;41.99;101214.94;5095867;28;20059;-51
2022/11/01 08:58:07;;;;;;;8.70;2.80;;;;;;;24.32;41.59;101225.47;5113618;28;20047;-58
2022/11/01 09:00:35;;;;;;;9.02;2.70;;;;;;;24.29;42.03;101234.19;5113814;28;20063;-58
2022/11/01 09:03:02;;;;;;;13.07;3.30;;;;;;;24.25;41.82;101228.00;5104425;28;20032;-46
2022/11/01 09:05:33;;;;;;;13.90;3.63;;;;;;;24.31;41.83;101215.84;5099236;28;20075;-58
2022/11/01 09:08:01;;;;;;;9.85;2.50;;;;;;;24.30;41.90;101224.56;5092764;28;20148;-58
2022/11/01 09:10:29;;;;;;;12.48;2.97;;;;;;;24.27;41.84;101225.41;5093064;28;20302;-59
2022/11/01 09:12:59;;;;;;;13.68;3.75;;;;;;;24.23;42.13;101210.50;5092977;28;20104;-60
2022/11/01 09:15:27;;;;;;;9.23;3.10;;;;;;;24.23;41.72;101215.72;5093318;28;20103;-58
2022/11/01 09:17:56;;;;;;;18.08;4.13;;;;;;;24.20;42.00;101219.19;5075237;28;20465;-57
2022/11/01 09:20:25;;;;;;;11.70;3.40;;;;;;;24.22;42.28;101221.84;5093317;28;20024;-57
2022/11/01 09:22:53;;;;;;;14.15;5.18;;;;;;;24.23;42.14;101216.63;5093280;28;20115;-57
2022/11/01 09:25:22;;;;;;;18.30;5.72;;;;;;;24.32;41.85;101212.38;5093030;28;20103;-54
2022/11/01 09:27:50;;;;;;;12.20;5.32;;;;;;;24.34;41.84;101210.66;5093042;28;20036;-57
2022/11/01 09:30:19;;;;;;;15.18;4.72;;;;;;;24.25;42.15;101220.13;5074925;28;20465;-57
2022/11/01 09:32:49;;;;;;;13.60;5.03;;;;;;;24.22;42.38;101221.84;5093068;28;20044;-57
2022/11/01 09:35:18;;;;;;;19.20;8.63;;;;;;;24.19;42.34;101227.03;5092729;28;20081;-56
2022/11/01 09:37:47;;;;;;;17.00;8.48;;;;;;;24.15;42.62;101218.22;5093050;28;20490;-57
2022/11/01 09:40:16;;;;;;;15.45;6.85;;;;;;;24.17;42.58;101218.25;5092855;28;20477;-56
2022/11/01 09:42:44;;;;;;;15.43;6.80;;;;;;;24.23;42.46;101223.59;5090517;28;20490;-57
2022/11/01 09:45:32;;;;;;;16.58;5.97;;;;;;;24.28;42.77;101224.56;5093204;28;20039;-57
2022/11/01 09:48:03;;;;;;;15.20;5.80;;;;;;;24.33;42.37;101232.50;5074997;28;20016;-56
2022/11/01 09:50:33;;;;;;;14.60;5.85;;;;;;;24.32;42.27;101231.63;5092854;28;20413;-57
2022/11/01 09:53:04;;;;;;;14.98;5.18;;;;;;;24.39;42.21;101225.59;5075105;28;20381;-57
2022/11/01 09:56:09;;;;;;;14.90;5.63;;;;;;;24.34;42.42;101227.25;5092715;28;20039;-56
2022/11/01 09:58:41;;;;;;;14.60;5.45;;;;;;;24.40;42.47;101231.75;5093047;28;20469;-58
2022/11/01 10:01:48;;;;;;;19.45;9.35;;;;;;;24.37;42.47;101219.44;5092843;28;20032;-58
2022/11/01 10:04:25;;;;;;;22.90;9.75;;;;;;;24.41;42.57;101237.00;5092974;28;20023;-57
2022/11/01 10:07:02;;;;;;;20.40;7.43;;;;;;;24.47;42.51;101223.09;5092971;28;20024;-57
2022/11/01 10:09:49;;;;;;;21.27;7.10;;;;;;;24.46;42.46;101230.94;5075175;28;20383;-56
2022/11/01 10:12:26;;;;;;;18.85;6.82;;;;;;;24.49;42.16;101225.75;5066273;28;20040;-57
2022/11/01 10:15:32;;;;;;;16.83;6.25;;;;;;;24.44;42.66;101230.91;5092851;28;20492;-57
2022/11/01 10:18:24;;;;;;;15.70;6.25;;;;;;;24.49;42.75;101231.00;5085569;28;20036;-57
2022/11/01 10:20:53;;;;;;;20.25;6.47;;;;;;;24.58;42.09;101220.63;5092559;28;20035;-57
2022/11/01 10:23:30;;;;;;;14.20;6.07;;;;;;;24.53;42.53;101241.56;5092399;28;20035;-58
2022/11/01 10:26:00;;;;;;;16.65;6.28;;;;;;;24.48;42.65;101229.25;5092355;28;20433;-57
2022/11/01 10:28:52;;;;;;;13.88;5.28;;;;;;;24.50;42.35;101237.97;5092543;28;20038;-57
2022/11/01 10:31:24;;;;;;;14.98;5.20;;;;;;;24.56;42.55;101227.59;5096325;28;20378;-57
2022/11/01 10:34:02;;;;;;;15.20;5.25;;;;;;;24.56;42.60;101230.22;5096348;28;20492;-57
2022/11/01 10:36:35;;;;;;;17.60;5.78;;;;;;;24.62;42.70;101235.56;5078584;28;20538;-57
2022/11/01 10:39:09;;;;;;;12.63;5.20;;;;;;;24.59;42.66;101230.28;5103721;28;20449;-56
2022/11/01 10:41:42;;;;;;;27.05;12.43;;;;;;;24.63;42.53;101244.31;5108977;28;20051;-55
2022/11/01 10:44:34;;;;;;;20.98;9.52;;;;;;;24.64;42.57;101239.09;5073295;28;20573;-54
2022/11/01 10:47:06;;;;;;;17.33;7.75;;;;;;;24.68;42.25;101238.25;5074903;28;20048;-57
2022/11/01 10:49:37;;;;;;;20.27;8.10;;;;;;;24.68;42.65;101242.63;5073718;28;20025;-57
2022/11/01 10:52:10;;;;;;;18.65;7.07;;;;;;;24.70;42.59;101249.69;5075647;28;20059;-58
2022/11/01 10:54:42;;;;;;;16.98;6.70;;;;;;;24.74;42.69;101242.75;5074783;28;20440;-57
2022/11/01 10:57:31;;;;;;;16.52;6.63;;;;;;;24.80;42.29;101249.84;5073824;28;20024;-56
2022/11/01 11:00:04;;;;;;;15.52;6.07;;;;;;;24.81;42.51;101267.34;5075881;28;20024;-58
2022/11/01 11:02:40;;;;;;;13.38;6.00;;;;;;;24.78;42.68;101252.41;5075699;28;20572;-58
2022/11/01 11:05:12;;;;;;;15.70;5.88;;;;;;;24.85;42.44;101256.00;5074385;28;20132;-58
2022/11/01 11:07:40;;;;;;;19.25;6.63;;;;;;;24.89;42.60;101249.97;5075816;28;20031;-57
2022/11/01 11:10:19;;;;;;;14.35;5.20;;;;;;;24.96;42.57;101249.19;5075583;28;20043;-58
2022/11/01 11:12:50;;;;;;;16.17;5.35;;;;;;;25.02;42.23;101259.75;5075497;28;20047;-57
2022/11/01 11:15:35;;;;;;;15.18;5.65;;;;;;;25.02;42.44;101257.13;5075508;28;20111;-58
2022/11/01 11:18:05;;;;;;;10.40;4.15;;;;;;;25.07;42.51;101251.06;5075302;28;20016;-57
2022/11/01 11:20:36;;;;;;;13.55;5.10;;;;;;;25.08;42.49;101264.19;5074503;28;20028;-58
2022/11/01 11:23:04;;;;;;;12.57;4.93;;;;;;;25.12;42.47;101255.50;5075195;28;20145;-56
2022/11/01 11:25:36;;;;;;;12.27;5.05;;;;;;;25.09;42.50;101242.34;5074211;28;20425;-57
2022/11/01 11:28:04;;;;;;;18.67;5.35;;;;;;;25.18;42.50;101249.44;5073888;28;20112;-57
2022/11/01 11:30:34;;;;;;;16.30;5.30;;;;;;;25.19;42.47;101248.59;5075107;28;20028;-58
2022/11/01 11:33:03;;;;;;;16.52;4.78;;;;;;;25.15;42.38;101234.53;5075073;28;20477;-56
2022/11/01 11:35:32;;;;;;;15.32;5.20;;;;;;;25.24;42.28;101251.25;5074083;28;20365;-54
2022/11/01 11:38:03;;;;;;;16.38;5.03;;;;;;;25.25;42.43;101260.91;5073843;28;20042;-57
2022/11/01 11:40:40;;;;;;;15.32;4.38;;;;;;;25.30;42.30;101252.25;5074822;28;20111;-58
2022/11/01 11:43:36;;;;;;;18.25;4.80;;;;;;;25.29;42.37;101258.34;5078671;28;20056;-58
2022/11/01 11:46:19;;;;;;;14.57;4.90;;;;;;;25.31;42.62;101246.13;5095259;28;20028;-57
2022/11/01 11:48:48;;;;;;;16.50;5.07;;;;;;;25.38;42.22;101252.34;5094541;28;20032;-57
2022/11/01 11:51:17;;;;;;;13.02;4.88;;;;;;;25.39;42.23;101251.47;5095116;28;20024;-56